Wan Hai 235 — BLBP — position and weather

sailwx.info

Track history (hours):
 
Tides and Currents Weather Stations Pressure Air Temp Water Temp Dewpoint Dewpoint Depression Visibility Wind Speed Wind Dir Waves Ship Positions

Wan Hai 235

Last reported at 2018-Jun-17 14:59 UTC. Time now 2018-Jun-17 22:16 UTC.
Position N 36°02' E 120°16'.

Length 191 m; draft 9.4 m.

Type: Cargo ship. MMSI: 416284686.

Date/timePositionNaut miles runAvg speedWind from/ knotsBaromVisibWave heightAir tempDewpointWater temp
2018-Jun-17 14:59N 36°02' E 120°16'3 0.8
2018-Jun-17 11:39N 36°01' E 120°13'0 0.0
2018-Jun-17 10:13N 36°01' E 120°13'0 0.0
2018-Jun-17 05:14N 36°01' E 120°13'4 7.4
2018-Jun-17 04:39N 36°02' E 120°18'2 9.7
2018-Jun-17 04:27N 36°02' E 120°21'712.7
2018-Jun-17 03:54N 36°00' E 120°29'139 3.3
2018-Jun-15 09:31N 38°09' E 121°35'015.5
2018-Jun-15 09:30N 38°09' E 121°35'1914.0
2018-Jun-15 08:08N 38°22' E 121°16'3712.3
2018-Jun-15 05:07N 38°32' E 120°30'312.7
2018-Jun-15 04:54N 38°32' E 120°27'512.5
2018-Jun-15 04:29N 38°32' E 120°20'33 0.8
2018-Jun-13 09:42N 38°33' E 121°03'1515.8
2018-Jun-13 08:44N 38°25' E 121°19'516.5
2018-Jun-13 08:26N 38°23' E 121°25'716.9
2018-Jun-13 08:01N 38°19' E 121°32'917.2
2018-Jun-13 07:30N 38°14' E 121°42'2217.5
2018-Jun-13 06:15N 38°01' E 122°03'40716.9
2018-Jun-12 06:06N 31°14' E 122°33'217.2
2018-Jun-12 06:00N 31°13' E 122°33'814.8
2018-Jun-12 05:30N 31°05' E 122°32'714.4
2018-Jun-12 05:00N 31°06' E 122°23'714.5
2018-Jun-12 04:31N 31°08' E 122°15'815.0
2018-Jun-12 03:58N 31°13' E 122°08'714.8
2018-Jun-12 03:30N 31°15' E 122°00'814.6
2018-Jun-12 02:59N 31°16' E 121°51'11 2.7
2018-Jun-11 22:55N 31°20' E 121°39'5 0.9
2018-Jun-11 17:32N 31°19' E 121°45'6 8.2
2018-Jun-11 16:45N 31°16' E 121°52'2 8.2
2018-Jun-11 16:30N 31°16' E 121°54'6 9.7
2018-Jun-11 15:54N 31°15' E 122°01'3 8.4
2018-Jun-11 15:30N 31°14' E 122°05'713.4
2018-Jun-11 15:00N 31°10' E 122°11'814.2
2018-Jun-11 14:26N 31°06' E 122°19'12 7.7
2018-Jun-11 12:54N 31°03' E 122°33'512.4
2018-Jun-11 12:30N 30°59' E 122°36'1113.6
2018-Jun-11 11:43N 30°52' E 122°45'50110.1
2018-Jun-09 09:56N 22°53' E 120°01'613.6
2018-Jun-09 09:30N 22°48' E 120°04'611.8
2018-Jun-09 09:00N 22°43' E 120°08'611.3
2018-Jun-09 08:30N 22°38' E 120°10'611.4
2018-Jun-09 08:00N 22°33' E 120°13'511.0
2018-Jun-09 07:30N 22°33' E 120°19'2 2.5
2018-Jun-09 06:51N 22°35' E 120°18'0 0.0
2018-Jun-09 06:27N 22°35' E 120°18'0 0.0
2018-Jun-09 05:45N 22°35' E 120°18'0 0.0
2018-Jun-09 05:21N 22°35' E 120°18'0 0.0
2018-Jun-09 04:45N 22°35' E 120°18'0 0.1
2018-Jun-09 04:27N 22°35' E 120°18'0 0.0
2018-Jun-09 03:57N 22°35' E 120°18'0 0.0
2018-Jun-09 03:27N 22°35' E 120°18'0 0.0
2018-Jun-09 02:57N 22°35' E 120°18'0 0.0
2018-Jun-09 02:21N 22°35' E 120°18'0 0.0
2018-Jun-09 01:57N 22°35' E 120°18'0 0.0
2018-Jun-09 01:27N 22°35' E 120°18'0 0.0
2018-Jun-09 00:57N 22°35' E 120°18'0 0.1
2018-Jun-09 00:27N 22°35' E 120°18'0 0.1
2018-Jun-08 23:57N 22°35' E 120°18'0 0.0
2018-Jun-08 23:27N 22°35' E 120°18'0 0.0
2018-Jun-08 22:51N 22°35' E 120°18'0 0.0
2018-Jun-08 22:27N 22°35' E 120°18'0 0.0
2018-Jun-08 21:57N 22°35' E 120°18'0 0.0
2018-Jun-08 21:27N 22°35' E 120°18'0 0.0
2018-Jun-08 20:39N 22°35' E 120°18'0 0.0
2018-Jun-08 20:27N 22°35' E 120°18'0 0.0
2018-Jun-08 19:51N 22°35' E 120°18'0 0.0
2018-Jun-08 19:30N 22°35' E 120°18'3 5.2
2018-Jun-08 19:00N 22°37' E 120°17'4 8.5
2018-Jun-08 18:30N 22°37' E 120°12'2 4.6
2018-Jun-08 18:00N 22°35' E 120°11'1 1.3
2018-Jun-08 17:26N 22°36' E 120°10'1 1.5
2018-Jun-08 16:50N 22°36' E 120°09'1 1.5
2018-Jun-08 16:14N 22°37' E 120°09'0 1.5
2018-Jun-08 15:56N 22°37' E 120°09'1 1.3
2018-Jun-08 15:26N 22°38' E 120°08'0 0.6
2018-Jun-08 14:50N 22°38' E 120°08'1 3.5
2018-Jun-08 14:30N 22°37' E 120°09'3 5.4
2018-Jun-08 13:59N 22°39' E 120°07'511.6
2018-Jun-08 13:30N 22°44' E 120°03'  
Track history (hours):
 
Tides and Currents Weather Stations Pressure Air Temp Water Temp Dewpoint Dewpoint Depression Visibility Wind Speed Wind Dir Waves Ship Positions

Wan Hai 235

Last reported at 2018-Jun-17 14:59 UTC. Time now 2018-Jun-17 22:16 UTC.
Position N 36°02' E 120°16'.

Length 191 m; draft 9.4 m.

Type: Cargo ship. MMSI: 416284686.

Date/timePositionNaut miles runAvg speedWind from/ knotsBaromVisibWave heightAir tempDewpointWater temp
2018-Jun-17 14:59N 36°02' E 120°16'3 0.8
2018-Jun-17 11:39N 36°01' E 120°13'0 0.0
2018-Jun-17 10:13N 36°01' E 120°13'0 0.0
2018-Jun-17 05:14N 36°01' E 120°13'4 7.4
2018-Jun-17 04:39N 36°02' E 120°18'2 9.7
2018-Jun-17 04:27N 36°02' E 120°21'712.7
2018-Jun-17 03:54N 36°00' E 120°29'139 3.3
2018-Jun-15 09:31N 38°09' E 121°35'015.5
2018-Jun-15 09:30N 38°09' E 121°35'1914.0
2018-Jun-15 08:08N 38°22' E 121°16'3712.3
2018-Jun-15 05:07N 38°32' E 120°30'312.7
2018-Jun-15 04:54N 38°32' E 120°27'512.5
2018-Jun-15 04:29N 38°32' E 120°20'33 0.8
2018-Jun-13 09:42N 38°33' E 121°03'1515.8
2018-Jun-13 08:44N 38°25' E 121°19'516.5
2018-Jun-13 08:26N 38°23' E 121°25'716.9
2018-Jun-13 08:01N 38°19' E 121°32'917.2
2018-Jun-13 07:30N 38°14' E 121°42'2217.5
2018-Jun-13 06:15N 38°01' E 122°03'40716.9
2018-Jun-12 06:06N 31°14' E 122°33'217.2
2018-Jun-12 06:00N 31°13' E 122°33'814.8
2018-Jun-12 05:30N 31°05' E 122°32'714.4
2018-Jun-12 05:00N 31°06' E 122°23'714.5
2018-Jun-12 04:31N 31°08' E 122°15'815.0
2018-Jun-12 03:58N 31°13' E 122°08'714.8
2018-Jun-12 03:30N 31°15' E 122°00'814.6
2018-Jun-12 02:59N 31°16' E 121°51'11 2.7
2018-Jun-11 22:55N 31°20' E 121°39'5 0.9
2018-Jun-11 17:32N 31°19' E 121°45'6 8.2
2018-Jun-11 16:45N 31°16' E 121°52'2 8.2
2018-Jun-11 16:30N 31°16' E 121°54'6 9.7
2018-Jun-11 15:54N 31°15' E 122°01'3 8.4
2018-Jun-11 15:30N 31°14' E 122°05'713.4
2018-Jun-11 15:00N 31°10' E 122°11'814.2
2018-Jun-11 14:26N 31°06' E 122°19'12 7.7
2018-Jun-11 12:54N 31°03' E 122°33'512.4
2018-Jun-11 12:30N 30°59' E 122°36'1113.6
2018-Jun-11 11:43N 30°52' E 122°45'50110.1
2018-Jun-09 09:56N 22°53' E 120°01'613.6
2018-Jun-09 09:30N 22°48' E 120°04'611.8
2018-Jun-09 09:00N 22°43' E 120°08'611.3
2018-Jun-09 08:30N 22°38' E 120°10'611.4
2018-Jun-09 08:00N 22°33' E 120°13'511.0
2018-Jun-09 07:30N 22°33' E 120°19'2 2.5
2018-Jun-09 06:51N 22°35' E 120°18'0 0.0
2018-Jun-09 06:27N 22°35' E 120°18'0 0.0
2018-Jun-09 05:45N 22°35' E 120°18'0 0.0
2018-Jun-09 05:21N 22°35' E 120°18'0 0.0
2018-Jun-09 04:45N 22°35' E 120°18'0 0.1
2018-Jun-09 04:27N 22°35' E 120°18'0 0.0
2018-Jun-09 03:57N 22°35' E 120°18'0 0.0
2018-Jun-09 03:27N 22°35' E 120°18'0 0.0
2018-Jun-09 02:57N 22°35' E 120°18'0 0.0
2018-Jun-09 02:21N 22°35' E 120°18'0 0.0
2018-Jun-09 01:57N 22°35' E 120°18'0 0.0
2018-Jun-09 01:27N 22°35' E 120°18'0 0.0
2018-Jun-09 00:57N 22°35' E 120°18'0 0.1
2018-Jun-09 00:27N 22°35' E 120°18'0 0.1
2018-Jun-08 23:57N 22°35' E 120°18'0 0.0
2018-Jun-08 23:27N 22°35' E 120°18'0 0.0
2018-Jun-08 22:51N 22°35' E 120°18'0 0.0
2018-Jun-08 22:27N 22°35' E 120°18'0 0.0
2018-Jun-08 21:57N 22°35' E 120°18'0 0.0
2018-Jun-08 21:27N 22°35' E 120°18'0 0.0
2018-Jun-08 20:39N 22°35' E 120°18'0 0.0
2018-Jun-08 20:27N 22°35' E 120°18'0 0.0
2018-Jun-08 19:51N 22°35' E 120°18'0 0.0
2018-Jun-08 19:30N 22°35' E 120°18'3 5.2
2018-Jun-08 19:00N 22°37' E 120°17'4 8.5
2018-Jun-08 18:30N 22°37' E 120°12'2 4.6
2018-Jun-08 18:00N 22°35' E 120°11'1 1.3
2018-Jun-08 17:26N 22°36' E 120°10'1 1.5
2018-Jun-08 16:50N 22°36' E 120°09'1 1.5
2018-Jun-08 16:14N 22°37' E 120°09'0 1.5
2018-Jun-08 15:56N 22°37' E 120°09'1 1.3
2018-Jun-08 15:26N 22°38' E 120°08'0 0.6
2018-Jun-08 14:50N 22°38' E 120°08'1 3.5
2018-Jun-08 14:30N 22°37' E 120°09'3 5.4
2018-Jun-08 13:59N 22°39' E 120°07'511.6
2018-Jun-08 13:30N 22°44' E 120°03'  

Dump ship's entire track history